createdAt,value
2023-02-03T00:00:42.006Z,2.08
2023-02-03T00:03:27.853Z,2.50
2023-02-03T00:06:13.463Z,2.33
2023-02-03T00:08:59.531Z,2.35
2023-02-03T00:11:45.027Z,2.63
2023-02-03T00:14:30.388Z,2.40
2023-02-03T00:17:15.886Z,2.45
2023-02-03T00:20:01.482Z,2.65
2023-02-03T00:22:46.711Z,2.15
2023-02-03T00:25:32.434Z,2.38
2023-02-03T00:28:18.089Z,2.58
2023-02-03T00:31:04.093Z,2.90
2023-02-03T00:33:55.032Z,2.88
2023-02-03T00:36:42.029Z,2.50
2023-02-03T00:39:27.970Z,2.80
2023-02-03T00:42:14.806Z,2.53
2023-02-03T00:45:00.145Z,2.70
2023-02-03T00:47:46.439Z,3.13
2023-02-03T00:50:31.875Z,2.08
2023-02-03T00:53:17.321Z,2.70
2023-02-03T00:56:02.747Z,2.58
2023-02-03T00:58:48.311Z,2.28
2023-02-03T01:01:34.631Z,2.67
2023-02-03T01:04:20.061Z,2.70
2023-02-03T01:07:05.484Z,2.13
2023-02-03T01:09:50.790Z,1.83
2023-02-03T01:12:36.257Z,2.40
2023-02-03T01:15:21.968Z,1.73
2023-02-03T01:18:08.053Z,2.30
2023-02-03T01:20:53.639Z,2.20
2023-02-03T01:23:39.449Z,2.50
2023-02-03T01:26:25.107Z,2.20
2023-02-03T01:29:11.038Z,2.15
2023-02-03T01:31:56.526Z,1.90
2023-02-03T01:34:41.893Z,1.70
2023-02-03T01:37:27.451Z,1.90
2023-02-03T01:40:13.086Z,2.00
2023-02-03T01:42:58.611Z,1.92
2023-02-03T01:45:45.919Z,1.75
2023-02-03T01:48:35.187Z,2.33
2023-02-03T01:51:22.116Z,2.35
2023-02-03T01:54:12.524Z,2.20
2023-02-03T01:57:14.345Z,1.67
2023-02-03T02:00:01.182Z,2.40
2023-02-03T02:02:48.988Z,2.00
2023-02-03T02:05:49.045Z,2.42
2023-02-03T02:08:36.179Z,1.80
2023-02-03T02:11:22.156Z,2.22
2023-02-03T02:14:07.964Z,1.80
2023-02-03T02:17:03.391Z,1.80
2023-02-03T02:20:27.320Z,1.85
2023-02-03T02:23:39.478Z,1.70
2023-02-03T02:26:40.436Z,1.73
2023-02-03T02:29:46.203Z,2.08
2023-02-03T02:32:56.745Z,1.88
2023-02-03T02:35:55.470Z,1.80
2023-02-03T02:39:02.715Z,1.80
2023-02-03T02:41:56.893Z,1.58
2023-02-03T02:44:59.440Z,1.75
2023-02-03T02:47:45.710Z,2.83
2023-02-03T02:50:38.125Z,1.40
2023-02-03T02:53:28.606Z,1.83
2023-02-03T02:56:16.787Z,2.10
2023-02-03T02:59:05.700Z,1.95
2023-02-03T03:01:51.514Z,1.60
2023-02-03T03:04:36.994Z,1.95
2023-02-03T03:07:26.621Z,1.90
2023-02-03T03:10:15.890Z,1.77
2023-02-03T03:13:09.809Z,1.98
2023-02-03T03:15:58.524Z,2.10
2023-02-03T03:19:07.583Z,2.10
2023-02-03T03:21:57.198Z,1.98
2023-02-03T03:24:49.089Z,2.08
2023-02-03T03:27:39.570Z,1.77
2023-02-03T03:30:29.575Z,1.73
2023-02-03T03:33:15.342Z,2.08
2023-02-03T03:36:28.613Z,1.92
2023-02-03T03:39:31.843Z,2.20
2023-02-03T03:42:36.318Z,1.70
2023-02-03T03:45:35.668Z,2.25
2023-02-03T03:48:53.299Z,2.20
2023-02-03T03:52:05.194Z,2.00
2023-02-03T03:54:52.423Z,2.10
2023-02-03T03:57:46.549Z,2.22
2023-02-03T04:00:35.302Z,1.95
2023-02-03T04:03:28.841Z,2.22
2023-02-03T04:06:14.318Z,1.95
2023-02-03T04:08:59.518Z,2.42
2023-02-03T04:12:02.846Z,2.10
2023-02-03T04:14:47.906Z,2.10
2023-02-03T04:17:36.029Z,2.10
2023-02-03T04:20:21.440Z,1.88
2023-02-03T04:23:07.011Z,1.88
2023-02-03T04:25:52.196Z,1.75
2023-02-03T04:28:37.706Z,2.13
2023-02-03T04:31:23.542Z,1.50
2023-02-03T04:34:08.772Z,2.00
2023-02-03T04:36:54.222Z,1.52
2023-02-03T04:39:39.459Z,1.95
2023-02-03T04:42:25.693Z,2.38
2023-02-03T04:45:12.237Z,2.38
2023-02-03T04:47:57.571Z,2.08
2023-02-03T04:50:43.014Z,1.90
2023-02-03T04:53:28.394Z,2.97
2023-02-03T04:56:15.504Z,2.25
2023-02-03T04:59:00.736Z,2.03
2023-02-03T05:01:45.988Z,1.70
2023-02-03T05:04:32.390Z,2.00
2023-02-03T05:07:18.018Z,1.80
2023-02-03T05:10:04.362Z,2.10
2023-02-03T05:12:49.849Z,2.00
2023-02-03T05:15:35.172Z,1.88
2023-02-03T05:18:20.695Z,1.90
2023-02-03T05:21:06.386Z,2.53
2023-02-03T05:23:51.884Z,2.03
2023-02-03T05:26:37.703Z,2.20
2023-02-03T05:29:22.758Z,2.15
2023-02-03T05:32:08.279Z,2.47
2023-02-03T05:34:53.775Z,2.72
2023-02-03T05:37:39.357Z,2.33
2023-02-03T05:40:44.169Z,2.05
2023-02-03T05:43:29.425Z,2.45
2023-02-03T05:46:14.897Z,1.80
2023-02-03T05:49:00.094Z,1.95
2023-02-03T05:51:46.571Z,2.35
2023-02-03T05:54:31.821Z,1.90
2023-02-03T05:57:18.344Z,2.60
2023-02-03T06:00:04.418Z,2.47
2023-02-03T06:03:04.528Z,2.03
2023-02-03T06:05:50.417Z,2.08
2023-02-03T06:08:35.780Z,1.80
2023-02-03T06:11:21.278Z,2.08
2023-02-03T06:14:07.122Z,2.42
2023-02-03T06:16:52.570Z,2.22
2023-02-03T06:19:37.924Z,2.38
2023-02-03T06:22:23.690Z,2.30
2023-02-03T06:25:11.831Z,2.38
2023-02-03T06:27:59.136Z,2.25
2023-02-03T06:30:44.431Z,2.15
2023-02-03T06:33:30.071Z,2.42
2023-02-03T06:36:15.419Z,2.50
2023-02-03T06:39:00.993Z,2.22
2023-02-03T06:41:46.525Z,2.42
2023-02-03T06:44:32.078Z,2.40
2023-02-03T06:47:17.381Z,2.28
2023-02-03T06:50:03.007Z,2.30
2023-02-03T06:52:50.159Z,2.00
2023-02-03T06:55:35.639Z,2.00
2023-02-03T06:58:21.128Z,2.20
2023-02-03T07:01:06.643Z,2.10
2023-02-03T07:03:52.401Z,1.75
2023-02-03T07:06:37.876Z,2.58
2023-02-03T07:09:23.486Z,2.28
2023-02-03T07:12:09.524Z,2.20
2023-02-03T07:14:55.213Z,2.17
2023-02-03T07:17:40.849Z,2.08
2023-02-03T07:20:29.032Z,2.03
2023-02-03T07:23:14.716Z,2.85
2023-02-03T07:26:01.383Z,2.42
2023-02-03T07:28:46.999Z,2.03
2023-02-03T07:31:32.321Z,2.10
2023-02-03T07:34:17.559Z,2.42
2023-02-03T07:37:03.016Z,2.25
2023-02-03T07:39:48.562Z,1.80
2023-02-03T07:42:34.362Z,2.50
2023-02-03T07:45:22.266Z,2.40
2023-02-03T07:48:07.639Z,2.13
2023-02-03T07:50:53.188Z,2.20
2023-02-03T07:53:38.639Z,2.50
2023-02-03T07:56:24.088Z,2.05
2023-02-03T07:59:09.595Z,2.10
2023-02-03T08:01:56.287Z,2.28
2023-02-03T08:04:41.631Z,1.98
2023-02-03T08:07:27.227Z,2.55
2023-02-03T08:10:15.314Z,2.55
2023-02-03T08:13:00.792Z,2.00
2023-02-03T08:15:47.672Z,2.63
2023-02-03T08:18:32.962Z,1.90
2023-02-03T08:21:18.406Z,2.47
2023-02-03T08:24:04.050Z,2.22
2023-02-03T08:26:49.817Z,2.15
2023-02-03T08:29:35.093Z,2.10
2023-02-03T08:32:22.443Z,2.40
2023-02-03T08:35:08.152Z,2.42
2023-02-03T08:37:53.711Z,1.70
2023-02-03T08:40:39.135Z,1.77
2023-02-03T08:43:24.296Z,2.70
2023-02-03T08:46:11.746Z,2.20
2023-02-03T08:48:57.175Z,2.47
2023-02-03T08:51:42.669Z,2.03
2023-02-03T08:54:27.914Z,2.20
2023-02-03T08:57:13.775Z,2.08
2023-02-03T08:59:58.885Z,1.92
2023-02-03T09:02:44.358Z,2.33
2023-02-03T09:05:31.299Z,2.00
2023-02-03T09:08:19.623Z,1.90
2023-02-03T09:11:12.682Z,1.90
2023-02-03T09:13:58.055Z,2.00
2023-02-03T09:16:43.415Z,2.10
2023-02-03T09:19:29.622Z,1.85
2023-02-03T09:22:14.764Z,1.52
2023-02-03T09:25:00.260Z,2.10
2023-02-03T09:27:46.094Z,2.00
2023-02-03T09:30:31.966Z,1.65
2023-02-03T09:33:17.634Z,2.67
2023-02-03T09:36:04.143Z,1.80
2023-02-03T09:38:49.483Z,1.65
2023-02-03T09:42:16.785Z,1.75
2023-02-03T09:45:14.851Z,1.90
2023-02-03T09:48:07.446Z,2.28
2023-02-03T09:50:53.551Z,1.73
2023-02-03T09:53:45.543Z,1.50
2023-02-03T09:56:34.228Z,1.70
2023-02-03T09:59:19.881Z,1.80
2023-02-03T10:02:18.760Z,2.03
2023-02-03T10:05:17.617Z,1.83
2023-02-03T10:08:13.679Z,2.08
2023-02-03T10:11:11.362Z,2.35
2023-02-03T10:14:08.530Z,1.80
2023-02-03T10:17:13.887Z,2.00
2023-02-03T10:20:21.438Z,2.03
2023-02-03T10:23:29.519Z,1.75
2023-02-03T10:26:20.481Z,1.60
2023-02-03T10:29:32.932Z,1.83
2023-02-03T10:32:18.411Z,2.00
2023-02-03T10:35:05.922Z,2.47
2023-02-03T10:37:57.399Z,2.58
2023-02-03T10:40:42.650Z,2.28
2023-02-03T10:43:51.332Z,2.47
2023-02-03T10:46:39.921Z,2.22
2023-02-03T10:49:27.567Z,1.90
2023-02-03T10:52:29.892Z,2.15
2023-02-03T10:55:35.672Z,2.20
2023-02-03T10:58:29.308Z,2.00
2023-02-03T11:01:17.538Z,2.47
2023-02-03T11:04:04.702Z,2.15
2023-02-03T11:07:01.723Z,2.15
2023-02-03T11:09:47.119Z,2.35
2023-02-03T11:12:32.593Z,2.78
2023-02-03T11:15:18.074Z,2.08
2023-02-03T11:18:04.041Z,2.17
2023-02-03T11:20:49.332Z,2.10
2023-02-03T11:23:35.074Z,2.28
2023-02-03T11:26:30.860Z,2.05
2023-02-03T11:29:34.300Z,2.17
2023-02-03T11:32:32.271Z,2.17
2023-02-03T11:35:24.431Z,2.28
2023-02-03T11:38:32.957Z,1.70
2023-02-03T11:41:22.459Z,2.08
2023-02-03T11:44:18.403Z,2.30
2023-02-03T11:47:14.096Z,2.35
2023-02-03T11:50:19.481Z,2.40
2023-02-03T11:53:04.980Z,2.33
2023-02-03T11:56:04.970Z,2.60
2023-02-03T11:58:59.169Z,2.35
2023-02-03T12:01:52.977Z,2.40
2023-02-03T12:05:14.602Z,2.60
2023-02-03T12:08:22.126Z,2.95
2023-02-03T12:11:33.718Z,2.55
2023-02-03T12:14:46.644Z,2.40
2023-02-03T12:20:49.668Z,2.85
2023-02-03T12:23:47.726Z,2.88
2023-02-03T12:26:59.995Z,2.80
2023-02-03T12:29:54.874Z,2.50
2023-02-03T12:32:48.474Z,2.88
2023-02-03T12:35:40.801Z,2.85
2023-02-03T12:38:34.921Z,2.70
2023-02-03T12:41:28.758Z,3.50
2023-02-03T12:44:42.539Z,3.00
2023-02-03T12:47:34.142Z,3.22
2023-02-03T12:50:21.830Z,2.63
2023-02-03T12:53:25.860Z,3.30
2023-02-03T12:56:16.246Z,3.63
2023-02-03T12:59:06.489Z,3.30
2023-02-03T13:02:18.443Z,3.08
2023-02-03T13:05:52.861Z,3.17
2023-02-03T13:08:46.255Z,3.72
2023-02-03T13:11:53.964Z,3.17
2023-02-03T13:15:05.417Z,3.22
2023-02-03T13:18:26.507Z,3.15
2023-02-03T13:21:12.686Z,4.13
2023-02-03T13:23:58.536Z,3.85
2023-02-03T13:27:20.441Z,3.08
2023-02-03T13:30:34.210Z,3.20
2023-02-03T13:33:19.738Z,3.00
2023-02-03T13:36:26.120Z,3.05
2023-02-03T13:39:20.449Z,3.60
2023-02-03T13:42:12.695Z,3.47
2023-02-03T13:45:27.073Z,3.30
2023-02-03T13:48:25.602Z,3.35
2023-02-03T13:51:17.801Z,2.58
2023-02-03T13:54:07.663Z,3.20
2023-02-03T13:56:59.835Z,3.25
2023-02-03T13:59:46.247Z,2.97
2023-02-03T14:02:43.252Z,3.83
2023-02-03T14:05:42.523Z,3.70
2023-02-03T14:08:27.871Z,3.10
2023-02-03T14:11:39.835Z,3.53
2023-02-03T14:14:25.202Z,3.72
2023-02-03T14:17:35.671Z,4.15
2023-02-03T14:20:43.453Z,4.10
2023-02-03T14:23:38.530Z,3.33
2023-02-03T14:26:31.706Z,4.00
2023-02-03T14:29:35.528Z,4.00
2023-02-03T14:32:20.976Z,3.83
2023-02-03T14:35:17.098Z,4.03
2023-02-03T14:38:06.429Z,4.50
2023-02-03T14:41:02.659Z,4.55
2023-02-03T14:44:04.409Z,3.90
2023-02-03T14:47:10.557Z,3.95
2023-02-03T14:50:17.230Z,4.05
2023-02-03T14:53:24.589Z,3.83
2023-02-03T14:56:25.067Z,4.30
2023-02-03T14:59:11.238Z,3.50
2023-02-03T15:01:56.653Z,3.65
2023-02-03T15:04:45.481Z,4.20
2023-02-03T15:07:44.654Z,3.00
2023-02-03T15:10:43.746Z,3.60
2023-02-03T15:13:32.587Z,3.65
2023-02-03T15:16:25.975Z,4.55
2023-02-03T15:19:20.393Z,3.58
2023-02-03T15:22:20.019Z,3.78
2023-02-03T15:25:18.096Z,3.53
2023-02-03T15:28:19.328Z,3.47
2023-02-03T15:31:26.866Z,4.38
2023-02-03T15:34:23.208Z,3.15
2023-02-03T15:37:32.638Z,3.55
2023-02-03T15:40:21.713Z,3.95
2023-02-03T15:43:25.620Z,4.30
2023-02-03T15:46:19.855Z,3.65
2023-02-03T15:49:18.175Z,3.70
2023-02-03T15:52:09.796Z,3.65
2023-02-03T15:55:08.126Z,3.60
2023-02-03T15:57:53.764Z,3.45
2023-02-03T16:00:40.812Z,3.30
2023-02-03T16:03:54.179Z,3.70
2023-02-03T16:06:43.649Z,3.83
2023-02-03T16:09:32.981Z,4.70
2023-02-03T16:12:26.956Z,3.15
2023-02-03T16:15:23.758Z,3.13
2023-02-03T16:18:18.081Z,3.90
2023-02-03T16:21:05.488Z,3.90
2023-02-03T16:23:50.840Z,3.40
2023-02-03T16:26:39.318Z,3.65
2023-02-03T16:29:48.541Z,3.45
2023-02-03T16:32:52.149Z,3.58
2023-02-03T16:35:56.323Z,3.15
2023-02-03T16:39:08.235Z,3.70
2023-02-03T16:42:12.038Z,3.40
2023-02-03T16:45:17.552Z,3.03
2023-02-03T16:48:22.507Z,4.07
2023-02-03T16:51:15.297Z,4.15
2023-02-03T16:54:00.746Z,4.90
2023-02-03T16:56:47.315Z,3.90
2023-02-03T16:59:32.802Z,3.22
2023-02-03T17:02:18.469Z,3.80
2023-02-03T17:05:03.952Z,4.20
2023-02-03T17:07:51.211Z,3.70
2023-02-03T17:10:38.621Z,5.65
2023-02-03T17:13:24.539Z,4.95
2023-02-03T17:16:19.520Z,4.25
2023-02-03T17:19:05.058Z,3.70
2023-02-03T17:21:51.377Z,4.53
2023-02-03T17:24:36.719Z,3.55
2023-02-03T17:27:22.109Z,4.30
2023-02-03T17:30:08.377Z,4.15
2023-02-03T17:32:53.478Z,4.40
2023-02-03T17:35:40.713Z,4.25
2023-02-03T17:38:25.760Z,3.40
2023-02-03T17:53:30.989Z,3.88
2023-02-03T17:56:20.477Z,4.95
2023-02-03T17:59:05.899Z,3.83
2023-02-03T18:01:52.838Z,3.20
2023-02-03T18:04:38.437Z,3.67
2023-02-03T18:07:23.957Z,3.22
2023-02-03T18:10:09.659Z,3.25
2023-02-03T18:12:54.934Z,4.13
2023-02-03T18:15:40.485Z,3.70
2023-02-03T18:18:26.911Z,3.30
2023-02-03T18:21:14.303Z,4.18
2023-02-03T18:24:01.915Z,3.67
2023-02-03T18:26:52.299Z,3.53
2023-02-03T18:29:41.045Z,4.00
2023-02-03T18:32:26.323Z,4.95
2023-02-03T18:35:16.769Z,3.78
2023-02-03T18:38:02.207Z,3.67
2023-02-03T18:40:47.753Z,3.50
2023-02-03T18:43:33.394Z,3.72
2023-02-03T18:46:30.562Z,4.22
2023-02-03T18:49:15.885Z,3.28
2023-02-03T18:52:01.612Z,3.75
2023-02-03T18:54:47.294Z,3.22
2023-02-03T18:57:33.023Z,3.67
2023-02-03T19:00:18.592Z,4.20
2023-02-03T19:03:04.014Z,4.50
2023-02-03T19:05:49.584Z,4.38
2023-02-03T19:08:34.843Z,4.63
2023-02-03T19:11:20.768Z,4.38
2023-02-03T19:14:06.348Z,3.85
2023-02-03T19:16:53.148Z,3.08
2023-02-03T19:19:38.733Z,4.28
2023-02-03T19:22:24.388Z,4.82
2023-02-03T19:25:10.137Z,4.88
2023-02-03T19:27:55.549Z,4.03
2023-02-03T19:30:40.963Z,4.13
2023-02-03T19:33:26.559Z,3.75
2023-02-03T19:36:12.777Z,4.35
2023-02-03T19:38:58.598Z,4.20
2023-02-03T19:41:44.122Z,4.20
2023-02-03T19:44:29.582Z,3.70
2023-02-03T19:47:15.245Z,4.72
2023-02-03T19:50:00.764Z,3.92
2023-02-03T19:52:48.502Z,3.60
2023-02-03T19:55:34.066Z,5.25
2023-02-03T19:58:19.305Z,4.65
2023-02-03T20:01:05.646Z,4.18
2023-02-03T20:03:51.618Z,4.68
2023-02-03T20:06:37.383Z,4.22
2023-02-03T20:09:23.036Z,4.03
2023-02-03T20:12:08.606Z,4.70
2023-02-03T20:14:54.337Z,4.50
2023-02-03T20:17:39.711Z,4.22
2023-02-03T20:20:25.158Z,4.43
2023-02-03T20:23:11.012Z,4.00
2023-02-03T20:25:57.048Z,4.20
2023-02-03T20:28:42.291Z,4.85
2023-02-03T20:31:27.862Z,3.70
2023-02-03T20:34:13.370Z,3.25
2023-02-03T20:37:00.805Z,3.53
2023-02-03T20:39:46.321Z,3.92
2023-02-03T20:42:31.794Z,4.03
2023-02-03T20:45:19.170Z,3.50
2023-02-03T20:48:08.943Z,3.80
2023-02-03T20:50:54.713Z,3.38
2023-02-03T20:53:41.171Z,3.63
2023-02-03T20:56:26.833Z,3.53
2023-02-03T20:59:15.631Z,3.83
2023-02-03T21:02:07.860Z,4.00
2023-02-03T21:04:58.967Z,3.75
2023-02-03T21:07:44.353Z,3.78
2023-02-03T21:10:30.091Z,4.07
2023-02-03T21:13:28.251Z,3.63
2023-02-03T21:16:20.899Z,3.60
2023-02-03T21:21:57.464Z,3.33
2023-02-03T21:24:49.099Z,3.20
2023-02-03T21:27:35.289Z,3.92
2023-02-03T21:30:35.385Z,3.38
2023-02-03T21:33:30.021Z,2.95
2023-02-03T21:36:18.118Z,2.90
2023-02-03T21:39:25.125Z,2.97
2023-02-03T21:42:40.197Z,2.40
2023-02-03T21:45:38.895Z,2.45
2023-02-03T21:48:40.468Z,2.47
2023-02-03T21:51:28.914Z,3.22
2023-02-03T21:54:33.620Z,3.90
2023-02-03T21:57:20.395Z,3.40
2023-02-03T22:00:39.147Z,2.90
2023-02-03T22:03:36.055Z,3.90
2023-02-03T22:06:28.135Z,4.05
2023-02-03T22:09:16.854Z,3.58
2023-02-03T22:12:02.628Z,2.97
2023-02-03T22:14:47.634Z,3.20
2023-02-03T22:17:33.099Z,3.75
2023-02-03T22:20:18.885Z,2.97
2023-02-03T22:23:04.934Z,3.15
2023-02-03T22:25:50.681Z,3.13
2023-02-03T22:28:36.557Z,3.20
2023-02-03T22:31:23.008Z,3.25
2023-02-03T22:34:09.426Z,3.30
2023-02-03T22:36:54.912Z,3.70
2023-02-03T22:39:40.180Z,2.72
2023-02-03T22:42:26.015Z,3.28
2023-02-03T22:45:12.119Z,3.30
2023-02-03T22:48:00.133Z,2.60
2023-02-03T22:50:45.487Z,3.55
2023-02-03T22:53:30.934Z,3.33
2023-02-03T22:56:16.605Z,2.85
2023-02-03T22:59:02.130Z,2.78
2023-02-03T23:01:47.570Z,3.38
2023-02-03T23:04:33.188Z,3.55
2023-02-03T23:07:19.057Z,4.28
2023-02-03T23:10:06.164Z,4.00
2023-02-03T23:12:52.276Z,3.92
2023-02-03T23:15:37.756Z,4.38
2023-02-03T23:18:23.104Z,4.00
2023-02-03T23:21:08.406Z,3.05
2023-02-03T23:23:54.011Z,3.72
2023-02-03T23:26:39.377Z,3.83
2023-02-03T23:29:24.923Z,3.47
2023-02-03T23:32:10.936Z,3.45
2023-02-03T23:35:14.932Z,3.70
2023-02-03T23:38:00.195Z,3.97
2023-02-03T23:40:45.802Z,2.70
2023-02-03T23:43:31.291Z,3.60
2023-02-03T23:46:16.941Z,3.83
2023-02-03T23:49:02.267Z,3.30
2023-02-03T23:51:47.846Z,4.03
2023-02-03T23:54:33.349Z,3.92
2023-02-03T23:57:18.954Z,3.55
